createdAt,value
2019-01-26T00:01:47.349Z,77.23
2019-01-26T00:11:52.684Z,78.07
2019-01-26T00:21:58.991Z,92.60
2019-01-26T00:32:04.534Z,92.47
2019-01-26T00:42:09.816Z,89.33
2019-01-26T00:52:15.407Z,80.33
2019-01-26T01:02:20.712Z,85.43
2019-01-26T01:12:26.079Z,78.43
2019-01-26T01:22:31.562Z,79.23
2019-01-26T01:32:37.030Z,85.23
2019-01-26T01:42:42.724Z,82.57
2019-01-26T01:52:48.004Z,77.20
2019-01-26T02:02:53.301Z,82.93
2019-01-26T02:12:58.662Z,82.93
2019-01-26T02:23:04.069Z,90.90
2019-01-26T02:33:09.392Z,90.43
2019-01-26T02:43:15.674Z,91.00
2019-01-26T02:53:21.068Z,83.37
2019-01-26T03:03:26.401Z,80.50
2019-01-26T03:13:31.686Z,79.80
2019-01-26T03:23:36.966Z,85.67
2019-01-26T03:33:42.239Z,75.80
2019-01-26T03:43:47.512Z,77.43
2019-01-26T03:53:52.829Z,83.07
2019-01-26T04:03:58.377Z,87.20
2019-01-26T04:14:03.716Z,85.03
2019-01-26T04:24:08.978Z,66.97
2019-01-26T04:34:14.395Z,72.33
2019-01-26T04:44:19.750Z,70.17
2019-01-26T04:54:24.980Z,72.40
2019-01-26T05:04:30.283Z,76.10
2019-01-26T05:14:35.652Z,64.97
2019-01-26T05:24:41.071Z,69.57
2019-01-26T05:34:46.370Z,72.70
2019-01-26T05:44:51.559Z,74.37
2019-01-26T05:54:56.926Z,73.87
2019-01-26T06:05:02.355Z,66.40
2019-01-26T06:15:08.232Z,73.17
2019-01-26T06:25:14.689Z,80.30
2019-01-26T06:35:20.569Z,69.20
2019-01-26T06:45:25.880Z,77.37
2019-01-26T06:55:31.178Z,70.33
2019-01-26T07:05:47.610Z,76.70
2019-01-26T07:15:53.750Z,83.20
2019-01-26T07:25:59.041Z,82.97
2019-01-26T07:36:04.373Z,75.97
2019-01-26T07:46:09.796Z,84.63
2019-01-26T07:56:15.131Z,83.50
2019-01-26T08:06:20.645Z,79.53
2019-01-26T08:16:26.037Z,66.07
2019-01-26T08:26:31.335Z,74.97
2019-01-26T08:36:36.815Z,70.97
2019-01-26T08:46:43.210Z,69.27
2019-01-26T08:56:48.645Z,75.13
2019-01-26T09:06:57.646Z,67.93
2019-01-26T09:17:03.200Z,70.43
2019-01-26T09:27:08.695Z,72.30
2019-01-26T09:37:13.958Z,64.13
2019-01-26T09:47:20.199Z,68.13
2019-01-26T09:57:25.593Z,76.77
2019-01-26T10:07:32.677Z,66.07
2019-01-26T10:17:38.037Z,66.73
2019-01-26T10:27:43.360Z,74.87
2019-01-26T10:37:48.700Z,84.37
2019-01-26T10:47:54.414Z,81.80
2019-01-26T10:57:59.768Z,77.90
2019-01-26T11:08:05.147Z,81.53
2019-01-26T11:18:10.594Z,82.90
2019-01-26T11:28:15.956Z,77.13
2019-01-26T11:38:21.323Z,74.30
2019-01-26T11:48:30.084Z,66.80
2019-01-26T11:58:35.466Z,65.33
2019-01-26T12:08:40.992Z,68.07
2019-01-26T12:18:46.652Z,69.40
2019-01-26T12:28:51.963Z,71.30
2019-01-26T12:38:57.365Z,80.27
2019-01-26T12:49:02.631Z,74.57
2019-01-26T12:59:08.933Z,73.20
2019-01-26T13:09:14.227Z,69.13
2019-01-26T13:19:19.769Z,63.93
2019-01-26T13:29:25.189Z,63.33
2019-01-26T13:39:30.563Z,70.37
2019-01-26T13:49:36.128Z,77.53
2019-01-26T13:59:41.578Z,78.73
2019-01-26T14:09:46.938Z,72.47
2019-01-26T14:19:52.402Z,85.43
2019-01-26T14:29:57.846Z,86.73
2019-01-26T14:40:03.275Z,87.37
2019-01-26T14:50:09.896Z,76.47
2019-01-26T15:00:18.959Z,85.70
2019-01-26T15:10:24.565Z,95.53
2019-01-26T15:20:32.633Z,97.23
2019-01-26T15:30:42.855Z,99.67
2019-01-26T15:40:48.319Z,98.97
2019-01-26T15:50:53.600Z,98.10
2019-01-26T16:00:58.956Z,94.57
2019-01-26T16:11:04.533Z,98.80
2019-01-26T16:21:09.893Z,97.83
2019-01-26T16:31:15.363Z,96.73
2019-01-26T16:41:20.758Z,108.40
2019-01-26T16:51:26.099Z,104.70
2019-01-26T17:01:31.359Z,92.60
2019-01-26T17:11:36.605Z,100.43
2019-01-26T17:21:41.949Z,100.93
2019-01-26T17:31:47.293Z,103.57
2019-01-26T17:41:52.565Z,107.53
2019-01-26T17:51:57.886Z,100.83
2019-01-26T18:02:03.204Z,108.23
2019-01-26T18:12:08.508Z,109.87
2019-01-26T18:22:14.041Z,101.60
2019-01-26T18:32:20.913Z,113.63
2019-01-26T18:42:26.335Z,95.40
2019-01-26T18:52:31.822Z,113.70
2019-01-26T19:02:38.205Z,119.23
2019-01-26T19:12:43.643Z,132.80
2019-01-26T19:22:49.054Z,120.87
2019-01-26T19:32:54.482Z,120.83
2019-01-26T19:42:59.874Z,116.13
2019-01-26T19:53:05.422Z,115.70
2019-01-26T20:03:10.757Z,112.93
2019-01-26T20:13:16.000Z,112.77
2019-01-26T20:23:21.343Z,114.03
2019-01-26T20:33:26.887Z,116.20
2019-01-26T20:43:32.254Z,108.70
2019-01-26T20:53:37.687Z,120.80
2019-01-26T21:03:44.071Z,120.57
2019-01-26T21:13:49.476Z,106.97
2019-01-26T21:23:54.790Z,114.83
2019-01-26T21:34:00.090Z,114.20
2019-01-26T21:44:05.792Z,114.53
2019-01-26T21:54:11.302Z,115.40
2019-01-26T22:04:16.647Z,114.83
2019-01-26T22:14:21.988Z,110.73
2019-01-26T22:24:27.567Z,125.27
2019-01-26T22:34:32.801Z,114.03
2019-01-26T22:44:38.157Z,118.43
2019-01-26T22:54:43.438Z,124.67
2019-01-26T23:05:18.207Z,125.30
2019-01-26T23:16:07.989Z,124.53
2019-01-26T23:26:32.026Z,129.73
2019-01-26T23:36:37.397Z,116.57
2019-01-26T23:46:42.691Z,130.77
2019-01-26T23:56:47.939Z,120.23
